Time;durP1;ratioP1;P1;durP2;ratioP2;P2;SDS_P1;SDS_P2;PMS_P1;PMS_P2;Temp;Humidity;BMP_temperature;BMP_pressure;BME280_temperature;BME280_humidity;BME280_pressure;Samples;Min_cycle;Max_cycle;Signal;HPM_P1;HPM_P2
2021/09/07 00:01:53;;;;;;;4.78;2.95;;;;;;;30.67;21.41;95285.81;5054707;28;20049;-52
2021/09/07 00:04:28;;;;;;;5.18;3.22;;;;;;;30.80;21.13;95285.38;5056061;28;20056;-54
2021/09/07 00:06:59;;;;;;;4.85;2.75;;;;;;;30.59;21.41;95280.81;5054588;28;20041;-53
2021/09/07 00:09:26;;;;;;;4.38;3.20;;;;;;;30.43;21.80;95278.56;5055107;28;20044;-53
2021/09/07 00:11:54;;;;;;;3.50;2.72;;;;;;;30.51;21.39;95285.50;5054846;28;20498;-56
2021/09/07 00:14:23;;;;;;;6.25;3.28;;;;;;;30.54;21.56;95290.09;5054848;28;20056;-54
2021/09/07 00:16:50;;;;;;;4.20;3.28;;;;;;;30.36;21.67;95281.31;5054875;28;20049;-56
2021/09/07 00:19:17;;;;;;;4.53;2.97;;;;;;;30.44;21.93;95287.44;5055009;28;20076;-56
2021/09/07 00:21:44;;;;;;;4.47;3.38;;;;;;;30.14;22.20;95293.31;5054521;28;20052;-53
2021/09/07 00:24:11;;;;;;;3.72;2.83;;;;;;;30.33;21.74;95282.84;5054616;28;20052;-53
2021/09/07 00:26:38;;;;;;;3.97;3.10;;;;;;;30.25;22.09;95285.97;5054715;28;20388;-53
2021/09/07 00:29:06;;;;;;;4.60;2.97;;;;;;;30.22;22.04;95286.75;5054907;28;20049;-58
2021/09/07 00:31:33;;;;;;;4.22;3.10;;;;;;;30.39;21.75;95291.31;5052957;28;20044;-53
2021/09/07 00:34:00;;;;;;;6.35;3.65;;;;;;;30.17;21.92;95295.22;5054467;28;20052;-53
2021/09/07 00:36:27;;;;;;;4.30;3.08;;;;;;;30.23;21.89;95291.75;5054591;28;20051;-55
2021/09/07 00:38:54;;;;;;;4.65;3.25;;;;;;;30.49;21.89;95292.44;5054582;28;20053;-53
2021/09/07 00:41:21;;;;;;;5.32;3.35;;;;;;;30.36;21.85;95292.09;5054206;28;20041;-54
2021/09/07 00:43:48;;;;;;;4.57;3.13;;;;;;;30.32;22.13;95296.72;5054615;28;20053;-54
2021/09/07 00:46:16;;;;;;;4.68;2.95;;;;;;;30.58;21.84;95298.94;5054367;28;20053;-53
2021/09/07 00:48:43;;;;;;;3.92;3.20;;;;;;;30.34;22.17;95299.81;5054483;28;20041;-54
2021/09/07 00:51:10;;;;;;;3.72;2.92;;;;;;;30.33;21.87;95303.66;5055024;28;20059;-53
2021/09/07 00:53:40;;;;;;;4.13;3.05;;;;;;;30.29;22.11;95302.91;5054380;28;20047;-53
2021/09/07 00:56:09;;;;;;;4.03;2.78;;;;;;;30.15;22.35;95302.94;5053104;28;20053;-57
2021/09/07 00:58:37;;;;;;;3.88;2.90;;;;;;;30.23;22.17;95299.09;5054871;28;20053;-56
2021/09/07 01:01:04;;;;;;;4.28;3.00;;;;;;;30.34;22.06;95297.88;5035786;28;20041;-52
2021/09/07 01:03:31;;;;;;;5.75;3.45;;;;;;;30.02;22.45;95299.88;5054313;28;20052;-54
2021/09/07 01:05:58;;;;;;;7.80;3.35;;;;;;;30.33;22.14;95299.03;5054136;28;20053;-53
2021/09/07 01:08:27;;;;;;;4.07;2.97;;;;;;;30.24;22.29;95300.63;5053394;28;20052;-56
2021/09/07 01:10:55;;;;;;;5.68;3.30;;;;;;;30.14;22.48;95301.41;5054279;28;20490;-56
2021/09/07 01:13:23;;;;;;;4.47;3.33;;;;;;;30.04;22.61;95292.97;5054547;28;20059;-52
2021/09/07 01:15:51;;;;;;;6.40;3.47;;;;;;;29.94;22.80;95288.34;5052376;28;20041;-54
2021/09/07 01:18:18;;;;;;;4.45;3.42;;;;;;;30.17;22.58;95290.59;5055331;28;20060;-53
2021/09/07 01:20:46;;;;;;;6.13;3.28;;;;;;;30.07;22.66;95284.09;5058129;28;20052;-54
2021/09/07 01:23:13;;;;;;;4.57;3.28;;;;;;;30.05;22.77;95283.72;5058314;28;20059;-52
2021/09/07 01:25:40;;;;;;;4.95;3.70;;;;;;;30.03;22.97;95293.34;5053488;28;20041;-54
2021/09/07 01:28:12;;;;;;;4.35;3.20;;;;;;;30.01;22.84;95292.94;5048477;28;20053;-52
2021/09/07 01:30:40;;;;;;;4.40;3.42;;;;;;;29.95;23.08;95284.47;5057458;28;20049;-52
2021/09/07 01:33:07;;;;;;;3.90;3.35;;;;;;;29.91;23.08;95283.69;5058096;28;20064;-53
2021/09/07 01:35:34;;;;;;;4.53;3.53;;;;;;;29.93;23.04;95288.72;5057969;28;20388;-51
2021/09/07 01:38:01;;;;;;;5.53;4.07;;;;;;;28.18;25.29;95277.59;5050161;28;20639;-55
2021/09/07 01:40:28;;;;;;;4.95;3.80;;;;;;;29.07;24.53;95287.91;5037981;28;20045;-54
2021/09/07 01:42:55;;;;;;;4.57;3.78;;;;;;;29.64;23.44;95279.88;5056575;28;20045;-55
2021/09/07 01:45:23;;;;;;;5.28;3.60;;;;;;;29.71;23.38;95282.59;5052299;28;20052;-53
2021/09/07 01:47:50;;;;;;;5.93;3.55;;;;;;;29.92;23.30;95290.63;5057112;28;20056;-55
2021/09/07 01:50:18;;;;;;;5.88;4.18;;;;;;;29.82;23.21;95280.66;5048990;28;20041;-55
2021/09/07 01:52:45;;;;;;;4.30;3.28;;;;;;;29.96;23.11;95271.78;5054716;28;20049;-54
2021/09/07 01:55:12;;;;;;;6.35;3.90;;;;;;;29.88;23.15;95268.31;5057678;28;20049;-53
2021/09/07 01:57:40;;;;;;;4.95;3.55;;;;;;;30.13;23.05;95278.28;5057088;28;20061;-54
2021/09/07 02:00:08;;;;;;;4.75;3.83;;;;;;;29.97;23.44;95279.47;5057048;28;20049;-54
2021/09/07 02:02:40;;;;;;;5.60;3.90;;;;;;;29.94;23.24;95280.25;5057266;28;20059;-55
2021/09/07 02:05:07;;;;;;;4.53;3.92;;;;;;;29.83;23.39;95276.03;5057554;28;20052;-57
2021/09/07 02:07:35;;;;;;;4.43;3.78;;;;;;;27.30;26.89;95275.06;5053148;28;20041;-53
2021/09/07 02:10:02;;;;;;;7.75;4.32;;;;;;;28.89;24.86;95279.03;5038624;28;20045;-55
2021/09/07 02:12:29;;;;;;;6.55;4.05;;;;;;;29.50;24.15;95274.53;5051513;28;20048;-55
2021/09/07 02:14:56;;;;;;;5.00;3.92;;;;;;;29.75;23.74;95269.88;5051269;28;20365;-54
2021/09/07 02:17:24;;;;;;;7.88;3.97;;;;;;;30.02;23.37;95267.53;5042096;28;20045;-53
2021/09/07 02:19:53;;;;;;;6.00;4.07;;;;;;;29.81;23.72;95265.63;5039015;28;20432;-55
2021/09/07 02:22:21;;;;;;;5.30;4.13;;;;;;;29.88;23.65;95268.31;5049694;28;20079;-54
2021/09/07 02:24:49;;;;;;;6.07;4.10;;;;;;;29.96;23.37;95264.47;5057115;28;20365;-54
2021/09/07 02:27:16;;;;;;;5.85;4.13;;;;;;;29.80;23.54;95256.00;5056616;28;20052;-56
2021/09/07 02:29:44;;;;;;;5.90;4.25;;;;;;;29.71;23.74;95263.72;5055969;28;20380;-53
2021/09/07 02:32:13;;;;;;;6.57;4.38;;;;;;;29.63;23.72;95270.25;5056743;28;20053;-55
2021/09/07 02:34:40;;;;;;;4.90;4.10;;;;;;;29.73;23.51;95272.19;5057020;28;20060;-53
2021/09/07 02:37:10;;;;;;;5.53;3.95;;;;;;;29.68;23.47;95265.28;5056557;28;20051;-56
2021/09/07 02:39:37;;;;;;;6.05;3.92;;;;;;;29.75;23.17;95264.50;5056884;28;20052;-58
2021/09/07 02:42:05;;;;;;;5.95;3.85;;;;;;;29.48;23.17;95266.06;5056436;28;20045;-56
2021/09/07 02:44:33;;;;;;;4.53;3.42;;;;;;;29.35;23.16;95266.41;5056531;28;20080;-54
2021/09/07 02:47:00;;;;;;;6.55;3.95;;;;;;;29.53;23.14;95268.38;5055524;28;20049;-57
2021/09/07 02:49:29;;;;;;;4.55;3.90;;;;;;;29.45;23.38;95262.22;5056520;28;20048;-54
2021/09/07 02:51:57;;;;;;;5.18;3.63;;;;;;;29.38;23.25;95262.94;5056619;28;20049;-56
2021/09/07 02:54:25;;;;;;;6.22;3.70;;;;;;;29.31;23.28;95262.94;5056622;28;20355;-51
2021/09/07 02:56:52;;;;;;;5.65;3.58;;;;;;;29.43;23.30;95259.13;5056146;28;20053;-54
2021/09/07 02:59:21;;;;;;;8.00;3.88;;;;;;;29.49;23.03;95268.38;5053953;28;20064;-52
2021/09/07 03:01:49;;;;;;;4.22;3.80;;;;;;;29.15;23.47;95259.88;5055323;28;20525;-52
2021/09/07 03:04:17;;;;;;;5.82;4.40;;;;;;;29.31;23.40;95262.94;5056474;28;20359;-54
2021/09/07 03:06:48;;;;;;;5.00;3.40;;;;;;;29.31;23.42;95267.56;5055993;28;20360;-54
2021/09/07 03:09:15;;;;;;;4.40;3.47;;;;;;;29.25;23.57;95267.19;5055972;28;20056;-58
2021/09/07 03:11:42;;;;;;;4.80;4.00;;;;;;;29.21;23.64;95263.72;5054952;28;20049;-53
2021/09/07 03:14:10;;;;;;;5.00;4.13;;;;;;;29.32;23.49;95261.78;5056239;28;20053;-53
2021/09/07 03:16:37;;;;;;;5.55;4.00;;;;;;;29.23;23.42;95257.94;5055814;28;20048;-55
2021/09/07 03:19:05;;;;;;;4.05;3.47;;;;;;;29.07;23.77;95269.09;5055836;28;20474;-53
2021/09/07 03:21:33;;;;;;;5.07;3.90;;;;;;;29.19;23.61;95257.97;5055876;28;20367;-51
2021/09/07 03:24:00;;;;;;;6.60;4.40;;;;;;;29.10;23.81;95257.53;5056278;28;20053;-52
2021/09/07 03:26:28;;;;;;;4.80;3.85;;;;;;;29.29;23.44;95259.09;5055712;28;20442;-53
2021/09/07 03:28:57;;;;;;;4.95;3.97;;;;;;;28.84;24.13;95256.72;5055572;28;20059;-54
2021/09/07 03:31:24;;;;;;;6.50;3.97;;;;;;;29.00;23.91;95258.31;5055269;28;20041;-52
2021/09/07 03:33:52;;;;;;;4.68;3.75;;;;;;;29.22;23.32;95254.50;5056015;28;20048;-55
2021/09/07 03:36:19;;;;;;;6.15;4.30;;;;;;;28.94;24.07;95254.47;5055414;28;20372;-54
2021/09/07 03:38:48;;;;;;;4.25;3.80;;;;;;;28.75;24.07;95256.31;5055546;28;20075;-53
2021/09/07 03:41:15;;;;;;;4.65;4.15;;;;;;;28.82;23.99;95248.25;5054881;28;20060;-52
2021/09/07 03:43:42;;;;;;;6.68;3.92;;;;;;;28.84;23.96;95251.31;5054229;28;20049;-53
2021/09/07 03:46:09;;;;;;;4.40;3.85;;;;;;;29.08;23.66;95260.63;5043743;28;20055;-55
2021/09/07 03:48:37;;;;;;;6.00;4.45;;;;;;;29.00;23.71;95261.00;5047991;28;20048;-54
2021/09/07 03:51:04;;;;;;;5.13;3.90;;;;;;;29.13;23.68;95256.78;5056225;28;20056;-53
2021/09/07 03:53:33;;;;;;;4.75;3.85;;;;;;;29.01;23.59;95259.84;5055384;28;20048;-55
2021/09/07 03:56:00;;;;;;;4.32;3.92;;;;;;;28.96;23.75;95269.06;5055410;28;20056;-53
2021/09/07 03:58:28;;;;;;;5.95;4.07;;;;;;;28.97;24.15;95253.69;5054729;28;20059;-54
2021/09/07 04:00:55;;;;;;;6.38;4.13;;;;;;;29.09;23.75;95266.78;5054832;28;20048;-56
2021/09/07 04:03:22;;;;;;;4.70;3.60;;;;;;;28.95;23.78;95262.16;5055335;28;20049;-53
2021/09/07 04:05:49;;;;;;;5.65;3.85;;;;;;;29.00;23.85;95263.69;5054998;28;20044;-53
2021/09/07 04:08:17;;;;;;;6.70;4.15;;;;;;;29.15;23.80;95270.66;5054680;28;20376;-53
2021/09/07 04:10:46;;;;;;;4.97;4.47;;;;;;;29.02;24.16;95269.47;5055091;28;20072;-54
2021/09/07 04:13:14;;;;;;;6.60;4.43;;;;;;;28.93;23.99;95280.59;5055022;28;20415;-55
2021/09/07 04:15:43;;;;;;;5.72;4.35;;;;;;;28.88;24.31;95282.88;5054388;28;20057;-56
2021/09/07 04:18:11;;;;;;;6.15;4.38;;;;;;;28.93;24.28;95286.00;5054081;28;20064;-55
2021/09/07 04:20:38;;;;;;;7.57;4.65;;;;;;;28.81;24.19;95278.22;5054941;28;20048;-54
2021/09/07 04:23:05;;;;;;;6.32;4.25;;;;;;;28.84;24.17;95283.63;5054956;28;20364;-56
2021/09/07 04:25:32;;;;;;;7.53;4.68;;;;;;;29.10;23.93;95279.06;5054750;28;20487;-53
2021/09/07 04:27:59;;;;;;;5.80;3.78;;;;;;;29.16;23.55;95286.41;5054056;28;20060;-54
2021/09/07 04:30:26;;;;;;;5.25;4.53;;;;;;;27.66;25.82;95289.56;5054264;28;20052;-52
2021/09/07 04:32:54;;;;;;;6.57;4.25;;;;;;;27.88;25.43;95293.94;5037392;28;20052;-53
2021/09/07 04:35:21;;;;;;;6.10;3.83;;;;;;;28.59;24.75;95293.53;5035359;28;20053;-54
2021/09/07 04:37:48;;;;;;;6.53;4.30;;;;;;;28.75;24.33;95301.28;5045788;28;20044;-55
2021/09/07 04:40:16;;;;;;;6.38;4.13;;;;;;;29.02;23.83;95294.47;5049046;28;20120;-55
2021/09/07 04:42:43;;;;;;;5.13;4.30;;;;;;;29.22;23.85;95302.19;5035231;28;20045;-53
2021/09/07 04:45:11;;;;;;;6.40;4.28;;;;;;;29.26;23.64;95298.34;5035096;28;20061;-55
2021/09/07 04:47:39;;;;;;;6.03;4.03;;;;;;;29.15;23.92;95303.72;5044219;28;20041;-54
2021/09/07 04:50:07;;;;;;;4.30;3.78;;;;;;;29.28;23.79;95300.66;5054515;28;20060;-54
2021/09/07 04:52:34;;;;;;;4.05;3.65;;;;;;;29.45;23.44;95300.69;5054338;28;20355;-57
2021/09/07 04:55:02;;;;;;;4.78;4.10;;;;;;;29.57;23.54;95298.75;5054482;28;20049;-55
2021/09/07 04:57:29;;;;;;;5.10;4.20;;;;;;;29.59;23.54;95304.53;5052374;28;20057;-54
2021/09/07 04:59:56;;;;;;;5.15;3.90;;;;;;;29.68;23.40;95296.84;5037793;28;20036;-54
2021/09/07 05:02:23;;;;;;;6.47;4.25;;;;;;;29.70;23.45;95300.69;5054477;28;20360;-56
2021/09/07 05:04:50;;;;;;;6.15;3.90;;;;;;;29.93;23.48;95308.38;5054424;28;20049;-55
2021/09/07 05:07:18;;;;;;;6.38;4.32;;;;;;;30.03;23.21;95304.13;5053737;28;20052;-53
2021/09/07 05:09:46;;;;;;;5.05;4.07;;;;;;;29.98;23.08;95299.88;5052694;28;20055;-58
2021/09/07 05:12:13;;;;;;;6.65;4.30;;;;;;;30.07;23.18;95308.34;5054329;28;20044;-52
2021/09/07 05:14:40;;;;;;;9.80;4.40;;;;;;;30.29;22.89;95308.31;5045503;28;20049;-55
2021/09/07 05:17:07;;;;;;;5.35;4.32;;;;;;;30.12;23.06;95303.72;5037663;28;20041;-53
2021/09/07 05:19:34;;;;;;;5.78;4.25;;;;;;;30.16;22.94;95309.88;5054263;28;20049;-57
2021/09/07 05:22:01;;;;;;;7.10;4.18;;;;;;;30.57;22.52;95313.59;5054321;28;20063;-52
2021/09/07 05:24:28;;;;;;;6.07;4.28;;;;;;;30.68;22.49;95308.94;5054333;28;20044;-55
2021/09/07 05:26:55;;;;;;;6.63;4.28;;;;;;;30.68;22.24;95313.56;5053927;28;20456;-54
2021/09/07 05:29:22;;;;;;;8.18;4.30;;;;;;;30.65;22.25;95323.22;5054576;28;20048;-57
2021/09/07 05:31:49;;;;;;;4.45;4.05;;;;;;;30.67;22.40;95318.19;5053643;28;20057;-53
2021/09/07 05:34:17;;;;;;;6.18;4.28;;;;;;;30.65;22.70;95317.81;5053179;28;20041;-54
2021/09/07 05:36:44;;;;;;;7.72;4.60;;;;;;;30.78;22.02;95317.41;5053808;28;20079;-53
2021/09/07 05:39:11;;;;;;;7.07;4.38;;;;;;;31.05;21.94;95314.94;5048432;28;20049;-55
2021/09/07 05:41:38;;;;;;;7.65;4.38;;;;;;;31.02;21.58;95315.72;5034042;28;20554;-55
2021/09/07 05:44:05;;;;;;;7.85;4.30;;;;;;;30.90;22.04;95306.13;5034308;28;20049;-53
2021/09/07 05:46:33;;;;;;;6.38;4.32;;;;;;;31.31;21.32;95311.69;5034014;28;20041;-53
2021/09/07 05:49:00;;;;;;;8.48;4.03;;;;;;;31.21;21.51;95307.91;5053135;28;20044;-55
2021/09/07 05:51:27;;;;;;;8.27;3.90;;;;;;;31.58;21.75;95306.47;5053748;28;20047;-55
2021/09/07 05:53:55;;;;;;;7.93;3.63;;;;;;;31.64;21.39;95313.00;5038604;28;20041;-56
2021/09/07 05:56:23;;;;;;;6.70;3.30;;;;;;;31.77;20.99;95316.00;5033782;28;20441;-55
2021/09/07 05:58:50;;;;;;;4.97;3.20;;;;;;;31.88;21.00;95306.63;5051757;28;20467;-53
2021/09/07 06:01:17;;;;;;;4.68;3.10;;;;;;;31.78;20.93;95312.91;5053690;28;20037;-54
2021/09/07 06:03:44;;;;;;;8.88;5.10;;;;;;;32.11;21.08;95314.13;5054148;28;20055;-55
2021/09/07 06:06:11;;;;;;;8.48;4.15;;;;;;;32.17;20.85;95312.50;5057184;28;20066;-53
2021/09/07 06:08:40;;;;;;;6.07;3.60;;;;;;;32.55;20.56;95311.75;5055569;28;20459;-56
2021/09/07 06:11:08;;;;;;;4.57;3.47;;;;;;;32.75;20.12;95309.94;5037448;28;20060;-57
2021/09/07 06:13:36;;;;;;;7.47;3.63;;;;;;;32.57;20.35;95302.06;5036272;28;20057;-54
2021/09/07 06:16:03;;;;;;;5.28;3.28;;;;;;;32.42;20.62;95306.88;5037871;28;20045;-56
2021/09/07 06:18:30;;;;;;;6.15;3.40;;;;;;;32.45;20.21;95313.41;5051337;28;20051;-55
2021/09/07 06:20:57;;;;;;;4.60;3.13;;;;;;;32.44;20.56;95312.63;5057254;28;20356;-57
2021/09/07 06:23:24;;;;;;;5.35;3.15;;;;;;;32.19;20.43;95309.41;5057123;28;20056;-56
2021/09/07 06:25:51;;;;;;;4.97;3.85;;;;;;;32.39;20.48;95307.69;5057070;28;20384;-55
2021/09/07 06:28:19;;;;;;;8.18;3.22;;;;;;;32.25;20.61;95307.78;5056636;28;20052;-58
2021/09/07 06:30:46;;;;;;;4.93;3.40;;;;;;;32.33;20.36;95306.59;5056397;28;20448;-54
2021/09/07 06:33:13;;;;;;;6.63;3.80;;;;;;;32.84;19.78;95309.50;5057051;28;20049;-54
2021/09/07 06:35:40;;;;;;;6.60;3.90;;;;;;;32.84;20.09;95310.25;5055807;28;20048;-54
2021/09/07 06:38:07;;;;;;;7.20;3.28;;;;;;;32.68;19.82;95315.44;5056364;28;20044;-56
2021/09/07 06:40:34;;;;;;;5.15;3.65;;;;;;;32.48;19.99;95305.25;5056852;28;20045;-55
2021/09/07 06:43:02;;;;;;;4.63;3.30;;;;;;;32.67;20.24;95319.34;5056913;28;20355;-55
2021/09/07 06:45:30;;;;;;;4.22;3.53;;;;;;;33.13;19.19;95316.03;5056618;28;20049;-59
2021/09/07 06:47:57;;;;;;;7.13;3.30;;;;;;;32.71;19.53;95317.34;5056151;28;20048;-54
2021/09/07 06:50:24;;;;;;;12.70;4.13;;;;;;;32.83;19.41;95319.56;5056637;28;20045;-57
2021/09/07 06:52:53;;;;;;;7.43;4.00;;;;;;;33.16;19.40;95319.88;5051720;28;20045;-53
2021/09/07 06:55:22;;;;;;;4.35;3.10;;;;;;;33.09;19.00;95313.41;5036842;28;20723;-56
2021/09/07 06:57:50;;;;;;;5.40;3.20;;;;;;;32.91;19.57;95326.41;5043533;28;20059;-59
2021/09/07 07:00:17;;;;;;;4.07;3.50;;;;;;;33.50;19.24;95325.97;5056283;28;20052;-59
2021/09/07 07:02:44;;;;;;;4.78;3.40;;;;;;;33.11;19.41;95319.16;5056530;28;20475;-59
2021/09/07 07:05:12;;;;;;;5.57;3.55;;;;;;;33.26;18.98;95319.72;5056489;28;20373;-61
2021/09/07 07:07:39;;;;;;;4.15;3.22;;;;;;;33.55;18.63;95319.31;5055603;28;20462;-62
2021/09/07 07:10:07;;;;;;;3.50;2.92;;;;;;;33.78;18.25;95322.03;5056271;28;20409;-56
2021/09/07 07:12:34;;;;;;;6.82;3.55;;;;;;;33.82;18.42;95316.53;5056317;28;20055;-61
2021/09/07 07:15:01;;;;;;;4.22;3.42;;;;;;;34.42;17.63;95322.91;5056222;28;20440;-58
2021/09/07 07:17:28;;;;;;;4.00;3.28;;;;;;;34.17;17.83;95321.38;5043842;28;20060;-58
2021/09/07 07:19:55;;;;;;;7.10;3.05;;;;;;;34.06;17.73;95331.66;5056114;28;20037;-57
2021/09/07 07:22:24;;;;;;;3.50;2.97;;;;;;;34.85;17.31;95337.16;5056133;28;20053;-57
2021/09/07 07:24:52;;;;;;;5.38;2.80;;;;;;;35.22;16.73;95327.06;5056163;28;20500;-59
2021/09/07 07:27:20;;;;;;;3.60;2.90;;;;;;;35.08;16.86;95332.81;5055542;28;20049;-59
2021/09/07 07:29:47;;;;;;;3.33;2.92;;;;;;;35.34;16.84;95347.41;5055354;28;20049;-59
2021/09/07 07:32:14;;;;;;;4.00;3.22;;;;;;;35.50;16.48;95331.88;5055991;28;20474;-54
2021/09/07 07:34:41;;;;;;;7.00;3.78;;;;;;;35.44;16.46;95339.00;5055246;28;20498;-54
2021/09/07 07:37:08;;;;;;;6.47;3.47;;;;;;;36.12;15.64;95342.81;5055122;28;20049;-56
2021/09/07 07:39:36;;;;;;;4.80;3.10;;;;;;;36.00;15.92;95333.41;5055640;28;20048;-56
2021/09/07 07:42:03;;;;;;;3.55;3.15;;;;;;;36.85;15.34;95337.78;5051378;28;20042;-58
2021/09/07 07:44:30;;;;;;;3.97;3.20;;;;;;;36.43;15.66;95335.00;5035817;28;20052;-54
2021/09/07 07:46:58;;;;;;;4.22;3.13;;;;;;;36.66;15.41;95342.94;5052260;28;20053;-54
2021/09/07 07:49:25;;;;;;;4.47;3.38;;;;;;;36.21;15.37;95344.94;5055306;28;20044;-54
2021/09/07 07:51:52;;;;;;;4.72;2.85;;;;;;;35.60;16.00;95345.63;5055396;28;20486;-55
2021/09/07 07:54:19;;;;;;;5.88;3.08;;;;;;;36.15;15.48;95347.41;5055525;28;20056;-54
2021/09/07 07:56:46;;;;;;;3.13;2.60;;;;;;;34.91;16.34;95346.34;5054955;28;20372;-55
2021/09/07 07:59:13;;;;;;;4.90;2.80;;;;;;;35.00;16.28;95345.03;5055155;28;20045;-54
2021/09/07 08:01:40;;;;;;;5.28;3.15;;;;;;;33.94;17.03;95351.25;5054833;28;20048;-56
2021/09/07 08:04:07;;;;;;;6.95;2.60;;;;;;;34.28;16.82;95365.34;5055372;28;20067;-53
2021/09/07 08:06:35;;;;;;;10.13;3.10;;;;;;;33.46;17.21;95352.34;5052204;28;20368;-54
2021/09/07 08:09:02;;;;;;;5.82;2.85;;;;;;;33.37;17.25;95341.28;5050450;28;20436;-54
2021/09/07 08:11:31;;;;;;;3.75;3.25;;;;;;;33.53;17.26;95346.06;5055184;28;20045;-53
2021/09/07 08:13:58;;;;;;;5.00;2.55;;;;;;;33.68;16.50;95340.00;5054504;28;20057;-54
2021/09/07 08:16:25;;;;;;;4.50;2.83;;;;;;;33.76;16.11;95335.22;5054659;28;20054;-55
2021/09/07 08:18:52;;;;;;;4.53;3.10;;;;;;;34.17;15.77;95337.66;5054916;28;20056;-54
2021/09/07 08:21:19;;;;;;;8.02;3.08;;;;;;;33.88;15.76;95336.63;5055074;28;20045;-55
2021/09/07 08:23:46;;;;;;;5.00;3.08;;;;;;;34.39;15.42;95332.63;5054866;28;20064;-53
2021/09/07 08:26:14;;;;;;;5.45;2.80;;;;;;;33.79;15.39;95336.34;5054351;28;20049;-57
2021/09/07 08:28:41;;;;;;;3.72;2.85;;;;;;;34.15;15.19;95342.75;5054188;28;20049;-55
2021/09/07 08:31:09;;;;;;;3.45;2.65;;;;;;;34.41;15.34;95356.66;5054292;28;20045;-57
2021/09/07 08:33:36;;;;;;;4.32;2.70;;;;;;;33.56;15.58;95342.53;5054695;28;20048;-57
2021/09/07 08:36:04;;;;;;;4.20;2.78;;;;;;;34.08;15.51;95336.66;5054417;28;20055;-57
2021/09/07 08:38:31;;;;;;;4.70;2.42;;;;;;;34.23;15.38;95329.81;5054537;28;20041;-55
2021/09/07 08:41:00;;;;;;;6.05;2.78;;;;;;;34.72;15.08;95328.09;5054648;28;20045;-55
2021/09/07 08:43:27;;;;;;;3.45;2.92;;;;;;;34.68;14.93;95338.28;5041013;28;20045;-54
2021/09/07 08:45:58;;;;;;;4.82;2.72;;;;;;;34.39;14.83;95334.59;5040604;28;20049;-55
2021/09/07 08:48:26;;;;;;;6.90;2.80;;;;;;;34.52;14.67;95330.06;5054585;28;20052;-56
2021/09/07 08:50:55;;;;;;;3.38;2.55;;;;;;;34.37;14.47;95331.53;5054658;28;20353;-56
2021/09/07 08:53:23;;;;;;;4.28;2.42;;;;;;;34.91;14.55;95329.31;5054504;28;20056;-56
2021/09/07 08:55:50;;;;;;;9.80;2.80;;;;;;;34.03;15.10;95333.25;5054063;28;20041;-55
2021/09/07 08:58:17;;;;;;;5.68;2.45;;;;;;;34.43;14.89;95327.13;5054382;28;20057;-54
2021/09/07 09:00:49;;;;;;;4.72;2.47;;;;;;;34.27;14.94;95323.13;5053167;28;20055;-55
2021/09/07 09:03:16;;;;;;;6.35;2.50;;;;;;;34.19;15.13;95321.72;5054774;28;20049;-56
2021/09/07 09:05:46;;;;;;;3.13;2.30;;;;;;;34.85;14.65;95323.56;5053961;28;20820;-56
2021/09/07 09:08:15;;;;;;;3.17;2.35;;;;;;;34.67;14.54;95315.03;5054202;28;20048;-56
2021/09/07 09:10:43;;;;;;;5.15;2.30;;;;;;;34.97;13.64;95316.75;5054270;28;20048;-56
2021/09/07 09:13:16;;;;;;;4.45;2.10;;;;;;;34.27;14.44;95320.41;5054473;28;20492;-55
2021/09/07 09:16:02;;;;;;;4.43;2.35;;;;;;;34.72;14.36;95316.47;5052891;28;20083;-58
2021/09/07 09:18:36;;;;;;;4.00;1.95;;;;;;;34.39;14.49;95315.59;5054348;28;20464;-59
2021/09/07 09:21:28;;;;;;;4.30;2.25;;;;;;;34.40;15.01;95304.31;5054345;28;20059;-59
2021/09/07 09:24:14;;;;;;;3.22;2.30;;;;;;;34.83;14.32;95295.28;5054285;28;20044;-60
2021/09/07 09:27:02;;;;;;;2.88;2.13;;;;;;;34.10;14.88;95305.25;5053737;28;20456;-57
2021/09/07 09:29:31;;;;;;;3.63;2.22;;;;;;;34.72;14.21;95303.66;5053753;28;20057;-54
2021/09/07 09:32:03;;;;;;;3.05;2.10;;;;;;;34.58;14.46;95303.94;5054162;28;20052;-61
2021/09/07 09:34:32;;;;;;;5.00;2.20;;;;;;;34.73;14.18;95297.06;5054274;28;20045;-60
2021/09/07 09:37:09;;;;;;;3.10;2.08;;;;;;;34.73;14.17;95297.06;5053226;28;20056;-55
2021/09/07 09:39:39;;;;;;;3.85;2.55;;;;;;;33.92;14.63;95299.38;5054841;28;20052;-61
2021/09/07 09:42:07;;;;;;;3.53;2.15;;;;;;;34.52;13.91;95313.78;5058028;28;20100;-60
2021/09/07 09:44:35;;;;;;;2.78;2.10;;;;;;;34.19;14.18;95304.69;5058058;28;20056;-61
2021/09/07 09:47:03;;;;;;;3.47;2.35;;;;;;;34.60;14.08;95288.75;5057532;28;20053;-55
2021/09/07 09:49:30;;;;;;;3.10;2.10;;;;;;;35.17;13.77;95303.88;5057535;28;20064;-53
2021/09/07 09:52:08;;;;;;;5.95;1.90;;;;;;;34.58;14.13;95312.09;5057725;28;20052;-56
2021/09/07 09:54:38;;;;;;;4.03;2.20;;;;;;;34.68;13.75;95292.13;5057766;28;20127;-55
2021/09/07 09:57:06;;;;;;;2.80;2.20;;;;;;;34.57;14.24;95294.28;5057149;28;20064;-56
2021/09/07 09:59:33;;;;;;;2.40;1.95;;;;;;;34.52;13.92;95292.06;5057179;28;20048;-55
2021/09/07 10:02:01;;;;;;;2.80;2.00;;;;;;;34.24;14.26;95285.97;5057934;28;20045;-57
2021/09/07 10:04:30;;;;;;;4.13;2.10;;;;;;;33.69;14.76;95281.91;5057662;28;20060;-55
2021/09/07 10:06:57;;;;;;;3.70;2.08;;;;;;;34.19;14.32;95294.59;5057089;28;20052;-55
2021/09/07 10:09:25;;;;;;;5.47;1.98;;;;;;;34.41;14.16;95303.13;5057235;28;20045;-56
2021/09/07 10:12:29;;;;;;;3.47;2.03;;;;;;;34.40;13.88;95300.84;5056355;28;20436;-55
2021/09/07 10:15:11;;;;;;;4.07;1.83;;;;;;;34.33;13.75;95280.75;5056410;28;20049;-54
2021/09/07 10:17:45;;;;;;;2.95;1.90;;;;;;;34.48;13.89;95285.94;5055918;28;20045;-56
2021/09/07 10:25:53;;;;;;;3.17;1.90;;;;;;;34.42;14.14;95287.63;5056700;28;20431;-55
2021/09/07 10:28:40;;;;;;;4.82;1.83;;;;;;;34.44;14.20;95268.97;5056960;28;20055;-54
2021/09/07 10:31:20;;;;;;;4.05;2.10;;;;;;;34.98;13.68;95276.78;5056549;28;20071;-55
2021/09/07 10:34:02;;;;;;;4.00;2.10;;;;;;;35.18;14.00;95277.47;5055806;28;20049;-55
2021/09/07 10:36:32;;;;;;;3.90;2.05;;;;;;;35.16;13.49;95269.00;5056691;28;20052;-55
2021/09/07 10:39:02;;;;;;;2.95;2.22;;;;;;;35.05;13.96;95273.88;5056727;28;20048;-55
2021/09/07 10:41:38;;;;;;;7.18;2.60;;;;;;;35.07;14.11;95266.06;5055563;28;20052;-55
2021/09/07 10:44:09;;;;;;;3.13;2.10;;;;;;;34.96;13.66;95273.72;5056966;28;20049;-53
2021/09/07 10:47:00;;;;;;;3.40;2.20;;;;;;;34.41;13.91;95276.00;5056684;28;20059;-55
2021/09/07 10:49:47;;;;;;;3.95;2.28;;;;;;;34.32;14.32;95278.44;5056751;28;20049;-54
2021/09/07 10:52:27;;;;;;;3.03;2.08;;;;;;;34.20;14.15;95260.88;5055658;28;20063;-53
2021/09/07 10:55:09;;;;;;;3.47;2.35;;;;;;;34.26;14.19;95259.19;5056749;28;20052;-56
2021/09/07 10:57:43;;;;;;;3.35;1.95;;;;;;;34.36;14.18;95262.16;5055091;28;20080;-55
2021/09/07 11:00:16;;;;;;;3.65;2.00;;;;;;;34.04;14.18;95258.06;5056076;28;20476;-56
2021/09/07 11:03:05;;;;;;;5.00;1.90;;;;;;;33.87;14.27;95251.81;5052431;28;20037;-55
2021/09/07 11:05:37;;;;;;;3.28;2.03;;;;;;;34.31;13.88;95252.50;5036221;28;20053;-53
2021/09/07 11:08:38;;;;;;;2.95;2.00;;;;;;;34.39;13.72;95250.47;5039321;28;20045;-54
2021/09/07 11:11:23;;;;;;;2.50;1.83;;;;;;;34.14;14.20;95262.53;5055527;28;20052;-55
2021/09/07 11:13:54;;;;;;;7.30;2.22;;;;;;;34.38;14.00;95246.22;5056759;28;20049;-53
2021/09/07 11:16:21;;;;;;;3.37;2.30;;;;;;;34.62;13.94;95244.94;5055568;28;20364;-55
2021/09/07 11:18:48;;;;;;;4.97;2.30;;;;;;;34.54;13.83;95238.88;5043368;28;20049;-56
2021/09/07 11:21:15;;;;;;;6.00;2.30;;;;;;;34.13;14.16;95244.72;5055922;28;20448;-55
2021/09/07 11:23:42;;;;;;;6.20;2.30;;;;;;;34.18;13.76;95224.47;5055982;28;20119;-55
2021/09/07 11:26:16;;;;;;;3.83;2.47;;;;;;;33.98;13.99;95243.47;5055815;28;20060;-58
2021/09/07 11:28:48;;;;;;;3.40;2.38;;;;;;;34.51;13.41;95237.00;5055867;28;20044;-55
2021/09/07 11:31:15;;;;;;;2.53;1.90;;;;;;;34.46;13.25;95234.03;5055114;28;20060;-54
2021/09/07 11:33:43;;;;;;;4.95;2.05;;;;;;;34.24;13.46;95234.41;5054791;28;20049;-54
2021/09/07 11:36:12;;;;;;;3.25;2.20;;;;;;;34.67;14.00;95227.38;5055859;28;20045;-55
2021/09/07 11:38:44;;;;;;;3.00;1.92;;;;;;;34.16;14.55;95227.63;5055530;28;20040;-57
2021/09/07 11:41:16;;;;;;;2.72;1.90;;;;;;;34.15;13.73;95226.09;5055926;28;20048;-55
2021/09/07 11:43:45;;;;;;;3.38;1.85;;;;;;;34.06;13.57;95250.28;5055484;28;20511;-54
2021/09/07 11:46:20;;;;;;;6.55;2.10;;;;;;;34.11;13.63;95230.81;5054082;28;20055;-56
2021/09/07 11:48:48;;;;;;;3.50;2.00;;;;;;;34.46;13.46;95234.03;5056164;28;20040;-59